sensor_id;sensor_type;location;lat;lon;timestamp;temperature;humidity
8717;DHT22;4395;48.554;8.820;2022-12-15T00:00:58;-1.40;99.90
8717;DHT22;4395;48.554;8.820;2022-12-15T00:03:19;-1.50;99.90
8717;DHT22;4395;48.554;8.820;2022-12-15T00:05:40;-1.50;99.90
8717;DHT22;4395;48.554;8.820;2022-12-15T00:08:08;-1.50;99.90
8717;DHT22;4395;48.554;8.820;2022-12-15T00:10:29;-1.60;99.90
8717;DHT22;4395;48.554;8.820;2022-12-15T00:12:50;-1.60;99.90
8717;DHT22;4395;48.554;8.820;2022-12-15T00:15:12;-1.40;99.90
8717;DHT22;4395;48.554;8.820;2022-12-15T00:17:32;-1.30;99.90
8717;DHT22;4395;48.554;8.820;2022-12-15T00:19:53;-1.30;99.90
8717;DHT22;4395;48.554;8.820;2022-12-15T00:22:14;-1.50;99.90
8717;DHT22;4395;48.554;8.820;2022-12-15T00:24:35;-1.40;99.90
8717;DHT22;4395;48.554;8.820;2022-12-15T00:26:55;-1.40;99.90
8717;DHT22;4395;48.554;8.820;2022-12-15T00:29:16;-1.50;99.90
8717;DHT22;4395;48.554;8.820;2022-12-15T00:31:38;-1.50;99.90
8717;DHT22;4395;48.554;8.820;2022-12-15T00:33:58;-1.30;99.90
8717;DHT22;4395;48.554;8.820;2022-12-15T00:36:19;-1.30;99.90
8717;DHT22;4395;48.554;8.820;2022-12-15T00:38:39;-1.20;99.90
8717;DHT22;4395;48.554;8.820;2022-12-15T00:40:45;-1.30;99.90
8717;DHT22;4395;48.554;8.820;2022-12-15T00:42:49;-1.50;99.90
8717;DHT22;4395;48.554;8.820;2022-12-15T00:44:52;-1.50;99.90
8717;DHT22;4395;48.554;8.820;2022-12-15T00:46:56;-1.40;99.90
8717;DHT22;4395;48.554;8.820;2022-12-15T00:48:59;-1.30;99.90
8717;DHT22;4395;48.554;8.820;2022-12-15T00:51:02;-1.20;99.90
8717;DHT22;4395;48.554;8.820;2022-12-15T00:53:05;-1.00;99.90
8717;DHT22;4395;48.554;8.820;2022-12-15T00:55:25;-1.10;99.90
8717;DHT22;4395;48.554;8.820;2022-12-15T00:57:46;-1.10;99.90
8717;DHT22;4395;48.554;8.820;2022-12-15T01:00:08;-1.00;99.90
8717;DHT22;4395;48.554;8.820;2022-12-15T01:02:30;-1.10;99.90
8717;DHT22;4395;48.554;8.820;2022-12-15T01:04:52;-1.00;99.90
8717;DHT22;4395;48.554;8.820;2022-12-15T01:07:12;-1.00;99.90
8717;DHT22;4395;48.554;8.820;2022-12-15T01:09:34;-0.90;99.90
8717;DHT22;4395;48.554;8.820;2022-12-15T01:11:54;-0.90;99.90
8717;DHT22;4395;48.554;8.820;2022-12-15T01:14:15;-0.90;99.90
8717;DHT22;4395;48.554;8.820;2022-12-15T01:16:35;-0.90;99.90
8717;DHT22;4395;48.554;8.820;2022-12-15T01:18:57;-0.90;99.90
8717;DHT22;4395;48.554;8.820;2022-12-15T01:21:18;-1.00;99.90
8717;DHT22;4395;48.554;8.820;2022-12-15T01:23:26;-1.00;99.90
8717;DHT22;4395;48.554;8.820;2022-12-15T01:25:30;-0.90;99.90
8717;DHT22;4395;48.554;8.820;2022-12-15T01:27:34;-0.90;99.90
8717;DHT22;4395;48.554;8.820;2022-12-15T01:29:37;-0.90;99.90
8717;DHT22;4395;48.554;8.820;2022-12-15T01:31:40;-0.80;99.90
8717;DHT22;4395;48.554;8.820;2022-12-15T01:33:44;-0.80;99.90
8717;DHT22;4395;48.554;8.820;2022-12-15T01:35:56;-0.80;99.90
8717;DHT22;4395;48.554;8.820;2022-12-15T01:38:00;-0.90;99.90
8717;DHT22;4395;48.554;8.820;2022-12-15T01:40:04;-0.90;99.90
8717;DHT22;4395;48.554;8.820;2022-12-15T01:42:38;-0.80;99.90
8717;DHT22;4395;48.554;8.820;2022-12-15T01:44:43;-0.90;99.90
8717;DHT22;4395;48.554;8.820;2022-12-15T01:46:48;-0.90;99.90
8717;DHT22;4395;48.554;8.820;2022-12-15T01:49:00;-0.90;99.90
8717;DHT22;4395;48.554;8.820;2022-12-15T01:51:17;-0.90;99.90
8717;DHT22;4395;48.554;8.820;2022-12-15T01:53:25;-0.90;99.90
8717;DHT22;4395;48.554;8.820;2022-12-15T01:55:31;-0.80;99.90
8717;DHT22;4395;48.554;8.820;2022-12-15T01:57:34;-1.00;99.90
8717;DHT22;4395;48.554;8.820;2022-12-15T01:59:41;-0.90;99.90
8717;DHT22;4395;48.554;8.820;2022-12-15T02:01:47;-0.90;99.90
8717;DHT22;4395;48.554;8.820;2022-12-15T02:03:51;-0.90;99.90
8717;DHT22;4395;48.554;8.820;2022-12-15T02:05:54;-0.90;99.90
8717;DHT22;4395;48.554;8.820;2022-12-15T02:08:00;-0.90;99.90
8717;DHT22;4395;48.554;8.820;2022-12-15T02:10:05;-1.00;99.90
8717;DHT22;4395;48.554;8.820;2022-12-15T02:12:19;-1.00;99.90
8717;DHT22;4395;48.554;8.820;2022-12-15T02:14:42;-1.00;99.90
8717;DHT22;4395;48.554;8.820;2022-12-15T02:17:04;-0.90;99.90
8717;DHT22;4395;48.554;8.820;2022-12-15T02:19:27;-0.90;99.90
8717;DHT22;4395;48.554;8.820;2022-12-15T02:21:43;-0.80;99.90
8717;DHT22;4395;48.554;8.820;2022-12-15T02:24:12;-0.90;99.90
8717;DHT22;4395;48.554;8.820;2022-12-15T02:32:25;-1.00;99.90
8717;DHT22;4395;48.554;8.820;2022-12-15T02:34:32;-1.00;99.90
8717;DHT22;4395;48.554;8.820;2022-12-15T02:36:39;-1.00;99.90
8717;DHT22;4395;48.554;8.820;2022-12-15T02:38:45;-1.10;99.90
8717;DHT22;4395;48.554;8.820;2022-12-15T02:40:55;-1.20;99.90
8717;DHT22;4395;48.554;8.820;2022-12-15T02:43:02;-1.00;99.90
8717;DHT22;4395;48.554;8.820;2022-12-15T02:45:09;-1.00;99.90
8717;DHT22;4395;48.554;8.820;2022-12-15T02:47:26;-1.00;99.90
8717;DHT22;4395;48.554;8.820;2022-12-15T02:49:45;-1.00;99.90
8717;DHT22;4395;48.554;8.820;2022-12-15T02:52:03;-0.90;99.90
8717;DHT22;4395;48.554;8.820;2022-12-15T02:54:26;-1.00;99.90
8717;DHT22;4395;48.554;8.820;2022-12-15T02:56:42;-1.00;99.90
8717;DHT22;4395;48.554;8.820;2022-12-15T02:58:55;-0.90;99.90
8717;DHT22;4395;48.554;8.820;2022-12-15T03:01:06;-0.90;99.90
8717;DHT22;4395;48.554;8.820;2022-12-15T03:03:12;-1.00;99.90
8717;DHT22;4395;48.554;8.820;2022-12-15T03:05:21;-1.00;99.90
8717;DHT22;4395;48.554;8.820;2022-12-15T03:07:26;-1.00;99.90
8717;DHT22;4395;48.554;8.820;2022-12-15T03:09:30;-1.00;99.90
8717;DHT22;4395;48.554;8.820;2022-12-15T03:11:35;-0.90;99.90
8717;DHT22;4395;48.554;8.820;2022-12-15T03:13:38;-0.90;99.90
8717;DHT22;4395;48.554;8.820;2022-12-15T03:15:42;-0.90;99.90
8717;DHT22;4395;48.554;8.820;2022-12-15T03:17:45;-1.00;99.90
8717;DHT22;4395;48.554;8.820;2022-12-15T03:19:49;-1.00;99.90
8717;DHT22;4395;48.554;8.820;2022-12-15T03:21:53;-1.10;99.90
8717;DHT22;4395;48.554;8.820;2022-12-15T03:23:56;-1.00;99.90
8717;DHT22;4395;48.554;8.820;2022-12-15T03:25:59;-1.00;99.90
8717;DHT22;4395;48.554;8.820;2022-12-15T03:28:02;-0.90;99.90
8717;DHT22;4395;48.554;8.820;2022-12-15T03:30:07;-1.00;99.90
8717;DHT22;4395;48.554;8.820;2022-12-15T03:32:11;-1.00;99.90
8717;DHT22;4395;48.554;8.820;2022-12-15T03:34:14;-1.00;99.90
8717;DHT22;4395;48.554;8.820;2022-12-15T03:36:19;-1.00;99.90
8717;DHT22;4395;48.554;8.820;2022-12-15T03:38:23;-1.00;99.90
8717;DHT22;4395;48.554;8.820;2022-12-15T03:40:26;-1.30;99.90
8717;DHT22;4395;48.554;8.820;2022-12-15T03:42:29;-1.30;99.90
8717;DHT22;4395;48.554;8.820;2022-12-15T03:44:51;-1.30;99.90
8717;DHT22;4395;48.554;8.820;2022-12-15T03:46:54;-1.40;99.90
8717;DHT22;4395;48.554;8.820;2022-12-15T03:49:04;-1.30;99.90
8717;DHT22;4395;48.554;8.820;2022-12-15T03:51:07;-1.20;99.90
8717;DHT22;4395;48.554;8.820;2022-12-15T03:53:12;-1.20;99.90
8717;DHT22;4395;48.554;8.820;2022-12-15T03:55:15;-1.10;99.90
8717;DHT22;4395;48.554;8.820;2022-12-15T03:57:19;-0.90;99.90
8717;DHT22;4395;48.554;8.820;2022-12-15T03:59:22;-1.00;99.90
8717;DHT22;4395;48.554;8.820;2022-12-15T04:01:28;-1.00;99.90
8717;DHT22;4395;48.554;8.820;2022-12-15T04:03:32;-1.10;99.90
8717;DHT22;4395;48.554;8.820;2022-12-15T04:05:37;-1.10;99.90
8717;DHT22;4395;48.554;8.820;2022-12-15T04:07:41;-1.20;99.90
8717;DHT22;4395;48.554;8.820;2022-12-15T04:09:45;-1.20;99.90
8717;DHT22;4395;48.554;8.820;2022-12-15T04:11:49;-1.10;99.90
8717;DHT22;4395;48.554;8.820;2022-12-15T04:13:52;-1.20;99.90
8717;DHT22;4395;48.554;8.820;2022-12-15T04:15:55;-1.20;99.90
8717;DHT22;4395;48.554;8.820;2022-12-15T04:18:00;-1.10;99.90
8717;DHT22;4395;48.554;8.820;2022-12-15T04:20:05;-1.20;99.90
8717;DHT22;4395;48.554;8.820;2022-12-15T04:22:11;-1.10;99.90
8717;DHT22;4395;48.554;8.820;2022-12-15T04:24:18;-1.10;99.90
8717;DHT22;4395;48.554;8.820;2022-12-15T04:26:40;-1.20;99.90
8717;DHT22;4395;48.554;8.820;2022-12-15T04:29:01;-1.20;99.90
8717;DHT22;4395;48.554;8.820;2022-12-15T04:31:24;-1.10;99.90
8717;DHT22;4395;48.554;8.820;2022-12-15T04:33:48;-1.00;99.90
8717;DHT22;4395;48.554;8.820;2022-12-15T04:36:12;-1.10;99.90
8717;DHT22;4395;48.554;8.820;2022-12-15T04:38:33;-1.10;99.90
8717;DHT22;4395;48.554;8.820;2022-12-15T04:40:54;-1.20;99.90
8717;DHT22;4395;48.554;8.820;2022-12-15T04:43:16;-1.10;99.90
8717;DHT22;4395;48.554;8.820;2022-12-15T04:45:37;-1.10;99.90
8717;DHT22;4395;48.554;8.820;2022-12-15T04:47:58;-1.00;99.90
8717;DHT22;4395;48.554;8.820;2022-12-15T04:50:19;-0.90;99.90
8717;DHT22;4395;48.554;8.820;2022-12-15T04:52:40;-1.00;99.90
8717;DHT22;4395;48.554;8.820;2022-12-15T04:55:00;-1.20;99.90
8717;DHT22;4395;48.554;8.820;2022-12-15T04:57:21;-1.20;99.90
8717;DHT22;4395;48.554;8.820;2022-12-15T04:59:43;-1.10;99.90
8717;DHT22;4395;48.554;8.820;2022-12-15T05:02:04;-1.10;99.90
8717;DHT22;4395;48.554;8.820;2022-12-15T05:04:25;-1.10;99.90
8717;DHT22;4395;48.554;8.820;2022-12-15T05:06:46;-1.00;99.90
8717;DHT22;4395;48.554;8.820;2022-12-15T05:09:07;-1.20;99.90
8717;DHT22;4395;48.554;8.820;2022-12-15T05:11:27;-1.10;99.90
8717;DHT22;4395;48.554;8.820;2022-12-15T05:13:48;-1.00;99.90
8717;DHT22;4395;48.554;8.820;2022-12-15T05:16:10;-1.00;99.90
8717;DHT22;4395;48.554;8.820;2022-12-15T05:18:31;-0.90;99.90
8717;DHT22;4395;48.554;8.820;2022-12-15T05:20:51;-0.90;99.90
8717;DHT22;4395;48.554;8.820;2022-12-15T05:23:12;-0.90;99.90
8717;DHT22;4395;48.554;8.820;2022-12-15T05:25:33;-1.00;99.90
8717;DHT22;4395;48.554;8.820;2022-12-15T05:27:54;-1.00;99.90
8717;DHT22;4395;48.554;8.820;2022-12-15T05:30:15;-0.90;99.90
8717;DHT22;4395;48.554;8.820;2022-12-15T05:32:37;-1.00;99.90
8717;DHT22;4395;48.554;8.820;2022-12-15T05:34:41;-0.90;99.90
8717;DHT22;4395;48.554;8.820;2022-12-15T05:36:44;-0.90;99.90
8717;DHT22;4395;48.554;8.820;2022-12-15T05:38:48;-1.00;99.90
8717;DHT22;4395;48.554;8.820;2022-12-15T05:40:56;-1.00;99.90
8717;DHT22;4395;48.554;8.820;2022-12-15T05:43:00;-1.10;99.90
8717;DHT22;4395;48.554;8.820;2022-12-15T05:45:03;-1.10;99.90
8717;DHT22;4395;48.554;8.820;2022-12-15T05:47:07;-1.10;99.90
8717;DHT22;4395;48.554;8.820;2022-12-15T05:49:14;-1.00;99.90
8717;DHT22;4395;48.554;8.820;2022-12-15T05:51:19;-1.00;99.90
8717;DHT22;4395;48.554;8.820;2022-12-15T05:53:22;-1.10;99.90
8717;DHT22;4395;48.554;8.820;2022-12-15T05:55:25;-1.10;99.90
8717;DHT22;4395;48.554;8.820;2022-12-15T05:57:28;-1.10;99.90
8717;DHT22;4395;48.554;8.820;2022-12-15T05:59:32;-1.10;99.90
8717;DHT22;4395;48.554;8.820;2022-12-15T06:01:35;-1.10;99.90
8717;DHT22;4395;48.554;8.820;2022-12-15T06:03:39;-1.00;99.90
8717;DHT22;4395;48.554;8.820;2022-12-15T06:05:44;-1.10;99.90
8717;DHT22;4395;48.554;8.820;2022-12-15T06:07:53;-1.20;99.90
8717;DHT22;4395;48.554;8.820;2022-12-15T06:09:56;-1.20;99.90
8717;DHT22;4395;48.554;8.820;2022-12-15T06:12:00;-1.20;99.90
8717;DHT22;4395;48.554;8.820;2022-12-15T06:14:03;-1.30;99.90
8717;DHT22;4395;48.554;8.820;2022-12-15T06:16:09;-1.10;99.90
8717;DHT22;4395;48.554;8.820;2022-12-15T06:18:14;-1.10;99.90
8717;DHT22;4395;48.554;8.820;2022-12-15T06:20:17;-1.00;99.90
8717;DHT22;4395;48.554;8.820;2022-12-15T06:22:21;-1.00;99.90
8717;DHT22;4395;48.554;8.820;2022-12-15T06:24:25;-1.00;99.90
8717;DHT22;4395;48.554;8.820;2022-12-15T06:26:30;-1.20;99.90
8717;DHT22;4395;48.554;8.820;2022-12-15T06:28:35;-1.20;99.90
8717;DHT22;4395;48.554;8.820;2022-12-15T06:30:38;-1.20;99.90
8717;DHT22;4395;48.554;8.820;2022-12-15T06:32:42;-1.10;99.90
8717;DHT22;4395;48.554;8.820;2022-12-15T06:34:50;-1.10;99.90
8717;DHT22;4395;48.554;8.820;2022-12-15T06:36:53;-1.20;99.90
8717;DHT22;4395;48.554;8.820;2022-12-15T06:38:59;-1.10;99.90
8717;DHT22;4395;48.554;8.820;2022-12-15T06:41:04;-1.20;99.90
8717;DHT22;4395;48.554;8.820;2022-12-15T06:43:08;-1.20;99.90
8717;DHT22;4395;48.554;8.820;2022-12-15T06:45:11;-1.10;99.90
8717;DHT22;4395;48.554;8.820;2022-12-15T06:47:14;-1.10;99.90
8717;DHT22;4395;48.554;8.820;2022-12-15T06:49:18;-1.20;99.90
8717;DHT22;4395;48.554;8.820;2022-12-15T06:51:22;-1.30;99.90
8717;DHT22;4395;48.554;8.820;2022-12-15T06:53:25;-1.30;99.90
8717;DHT22;4395;48.554;8.820;2022-12-15T06:55:30;-1.30;99.90
8717;DHT22;4395;48.554;8.820;2022-12-15T06:57:34;-1.40;99.90
8717;DHT22;4395;48.554;8.820;2022-12-15T06:59:37;-1.30;99.90
8717;DHT22;4395;48.554;8.820;2022-12-15T07:01:40;-1.40;99.90
8717;DHT22;4395;48.554;8.820;2022-12-15T07:03:44;-1.30;99.90
8717;DHT22;4395;48.554;8.820;2022-12-15T07:05:59;-1.40;99.90
8717;DHT22;4395;48.554;8.820;2022-12-15T07:08:04;-1.40;99.90
8717;DHT22;4395;48.554;8.820;2022-12-15T07:10:08;-1.40;99.90
8717;DHT22;4395;48.554;8.820;2022-12-15T07:12:14;-1.30;99.90
8717;DHT22;4395;48.554;8.820;2022-12-15T07:14:17;-1.40;99.90
8717;DHT22;4395;48.554;8.820;2022-12-15T07:16:21;-1.40;99.90
8717;DHT22;4395;48.554;8.820;2022-12-15T07:18:25;-1.40;99.90
8717;DHT22;4395;48.554;8.820;2022-12-15T07:20:28;-1.40;99.90
8717;DHT22;4395;48.554;8.820;2022-12-15T07:22:32;-1.40;99.90
8717;DHT22;4395;48.554;8.820;2022-12-15T07:24:36;-1.40;99.90
8717;DHT22;4395;48.554;8.820;2022-12-15T07:26:39;-1.40;99.90
8717;DHT22;4395;48.554;8.820;2022-12-15T07:28:45;-1.40;99.90
8717;DHT22;4395;48.554;8.820;2022-12-15T07:30:48;-1.30;99.90
8717;DHT22;4395;48.554;8.820;2022-12-15T07:32:51;-1.30;99.90
8717;DHT22;4395;48.554;8.820;2022-12-15T07:34:54;-1.40;99.90
8717;DHT22;4395;48.554;8.820;2022-12-15T07:36:57;-1.40;99.90
8717;DHT22;4395;48.554;8.820;2022-12-15T07:39:01;-1.30;99.90
8717;DHT22;4395;48.554;8.820;2022-12-15T07:41:08;-1.30;99.90
8717;DHT22;4395;48.554;8.820;2022-12-15T07:43:11;-1.30;99.90
8717;DHT22;4395;48.554;8.820;2022-12-15T07:45:16;-1.30;99.90
8717;DHT22;4395;48.554;8.820;2022-12-15T07:47:19;-1.30;99.90
8717;DHT22;4395;48.554;8.820;2022-12-15T07:49:22;-1.30;99.90
8717;DHT22;4395;48.554;8.820;2022-12-15T07:51:25;-1.20;99.90
8717;DHT22;4395;48.554;8.820;2022-12-15T07:53:29;-1.30;99.90
8717;DHT22;4395;48.554;8.820;2022-12-15T07:55:33;-1.30;99.90
8717;DHT22;4395;48.554;8.820;2022-12-15T07:57:56;-1.30;99.90
8717;DHT22;4395;48.554;8.820;2022-12-15T07:59:59;-1.30;99.90
8717;DHT22;4395;48.554;8.820;2022-12-15T08:02:13;-1.40;99.90
8717;DHT22;4395;48.554;8.820;2022-12-15T08:04:17;-1.40;99.90
8717;DHT22;4395;48.554;8.820;2022-12-15T08:06:20;-1.30;99.90
8717;DHT22;4395;48.554;8.820;2022-12-15T08:08:23;-1.40;99.90
8717;DHT22;4395;48.554;8.820;2022-12-15T08:10:26;-1.30;99.90
8717;DHT22;4395;48.554;8.820;2022-12-15T08:12:29;-1.30;99.90
8717;DHT22;4395;48.554;8.820;2022-12-15T08:14:33;-1.20;99.90
8717;DHT22;4395;48.554;8.820;2022-12-15T08:16:36;-1.00;99.90
8717;DHT22;4395;48.554;8.820;2022-12-15T08:18:40;-1.10;99.90
8717;DHT22;4395;48.554;8.820;2022-12-15T08:20:44;-1.10;99.90
8717;DHT22;4395;48.554;8.820;2022-12-15T08:22:51;-1.10;99.90
8717;DHT22;4395;48.554;8.820;2022-12-15T08:24:54;-1.00;99.90
8717;DHT22;4395;48.554;8.820;2022-12-15T08:26:57;-0.90;99.90
8717;DHT22;4395;48.554;8.820;2022-12-15T08:29:02;-0.90;99.90
8717;DHT22;4395;48.554;8.820;2022-12-15T08:31:26;-0.80;99.90
8717;DHT22;4395;48.554;8.820;2022-12-15T08:33:31;-0.80;99.90
8717;DHT22;4395;48.554;8.820;2022-12-15T08:35:38;-0.70;99.90
8717;DHT22;4395;48.554;8.820;2022-12-15T08:37:57;-0.70;99.90
8717;DHT22;4395;48.554;8.820;2022-12-15T08:40:07;-0.60;99.90
8717;DHT22;4395;48.554;8.820;2022-12-15T08:42:10;-0.70;99.90
8717;DHT22;4395;48.554;8.820;2022-12-15T08:44:14;-0.70;99.90
8717;DHT22;4395;48.554;8.820;2022-12-15T08:46:19;-0.60;99.90
8717;DHT22;4395;48.554;8.820;2022-12-15T08:48:23;-0.60;99.90
8717;DHT22;4395;48.554;8.820;2022-12-15T08:50:26;-0.50;99.90
8717;DHT22;4395;48.554;8.820;2022-12-15T08:52:31;-0.50;99.90
8717;DHT22;4395;48.554;8.820;2022-12-15T08:54:35;-0.50;99.90
8717;DHT22;4395;48.554;8.820;2022-12-15T08:56:38;-0.50;99.90
8717;DHT22;4395;48.554;8.820;2022-12-15T08:58:41;-0.60;99.90
8717;DHT22;4395;48.554;8.820;2022-12-15T09:00:45;-0.40;99.90
8717;DHT22;4395;48.554;8.820;2022-12-15T09:02:48;-0.50;99.90
8717;DHT22;4395;48.554;8.820;2022-12-15T09:04:51;-0.50;99.90
8717;DHT22;4395;48.554;8.820;2022-12-15T09:06:55;-0.60;99.90
8717;DHT22;4395;48.554;8.820;2022-12-15T09:09:02;-0.60;99.90
8717;DHT22;4395;48.554;8.820;2022-12-15T09:11:08;-0.80;99.90
8717;DHT22;4395;48.554;8.820;2022-12-15T09:13:11;-0.70;99.90
8717;DHT22;4395;48.554;8.820;2022-12-15T09:15:14;-0.70;99.90
8717;DHT22;4395;48.554;8.820;2022-12-15T09:17:17;-0.60;99.90
8717;DHT22;4395;48.554;8.820;2022-12-15T09:19:21;-0.40;99.90
8717;DHT22;4395;48.554;8.820;2022-12-15T09:21:25;-0.30;99.90
8717;DHT22;4395;48.554;8.820;2022-12-15T09:23:30;-0.20;99.90
8717;DHT22;4395;48.554;8.820;2022-12-15T09:25:36;-0.20;99.90
8717;DHT22;4395;48.554;8.820;2022-12-15T09:27:39;-0.10;99.90
8717;DHT22;4395;48.554;8.820;2022-12-15T09:29:42;0.00;99.90
8717;DHT22;4395;48.554;8.820;2022-12-15T09:31:46;-0.10;99.90
8717;DHT22;4395;48.554;8.820;2022-12-15T09:33:50;-0.20;99.90
8717;DHT22;4395;48.554;8.820;2022-12-15T09:35:54;-0.20;99.90
8717;DHT22;4395;48.554;8.820;2022-12-15T09:37:57;-0.10;99.90
8717;DHT22;4395;48.554;8.820;2022-12-15T09:40:01;0.00;99.90
8717;DHT22;4395;48.554;8.820;2022-12-15T09:42:22;0.00;99.90
8717;DHT22;4395;48.554;8.820;2022-12-15T09:44:27;-0.20;99.90
8717;DHT22;4395;48.554;8.820;2022-12-15T09:46:46;-0.10;99.90
8717;DHT22;4395;48.554;8.820;2022-12-15T09:48:57;0.00;99.90
8717;DHT22;4395;48.554;8.820;2022-12-15T09:51:03;0.10;99.90
8717;DHT22;4395;48.554;8.820;2022-12-15T09:53:09;0.10;99.90
8717;DHT22;4395;48.554;8.820;2022-12-15T09:55:35;0.20;99.90
8717;DHT22;4395;48.554;8.820;2022-12-15T09:57:45;0.20;99.90
8717;DHT22;4395;48.554;8.820;2022-12-15T10:00:01;0.00;99.90
8717;DHT22;4395;48.554;8.820;2022-12-15T10:02:32;-0.10;99.90
8717;DHT22;4395;48.554;8.820;2022-12-15T10:04:56;-0.10;99.90
8717;DHT22;4395;48.554;8.820;2022-12-15T10:07:12;0.00;99.90
8717;DHT22;4395;48.554;8.820;2022-12-15T10:09:21;0.00;99.90
8717;DHT22;4395;48.554;8.820;2022-12-15T10:11:44;-0.10;99.90
8717;DHT22;4395;48.554;8.820;2022-12-15T10:14:18;-0.10;99.90
8717;DHT22;4395;48.554;8.820;2022-12-15T10:16:30;0.10;99.90
8717;DHT22;4395;48.554;8.820;2022-12-15T10:18:40;0.10;99.90
8717;DHT22;4395;48.554;8.820;2022-12-15T10:20:59;0.10;99.90
8717;DHT22;4395;48.554;8.820;2022-12-15T10:23:09;0.30;99.90
8717;DHT22;4395;48.554;8.820;2022-12-15T10:25:16;0.10;99.90
8717;DHT22;4395;48.554;8.820;2022-12-15T10:28:08;0.10;99.90
8717;DHT22;4395;48.554;8.820;2022-12-15T10:30:25;0.20;99.90
8717;DHT22;4395;48.554;8.820;2022-12-15T10:32:35;0.00;99.90
8717;DHT22;4395;48.554;8.820;2022-12-15T10:34:51;0.10;99.90
8717;DHT22;4395;48.554;8.820;2022-12-15T10:36:55;0.20;99.90
8717;DHT22;4395;48.554;8.820;2022-12-15T10:38:59;0.00;99.90
8717;DHT22;4395;48.554;8.820;2022-12-15T10:41:04;-0.20;99.90
8717;DHT22;4395;48.554;8.820;2022-12-15T10:43:13;-0.20;99.90
8717;DHT22;4395;48.554;8.820;2022-12-15T10:45:32;-0.30;99.90
8717;DHT22;4395;48.554;8.820;2022-12-15T10:47:37;-0.30;99.90
8717;DHT22;4395;48.554;8.820;2022-12-15T10:49:40;-0.40;99.90
8717;DHT22;4395;48.554;8.820;2022-12-15T10:51:47;-0.50;99.90
8717;DHT22;4395;48.554;8.820;2022-12-15T10:54:03;-0.40;99.90
8717;DHT22;4395;48.554;8.820;2022-12-15T10:56:17;-0.40;99.90
8717;DHT22;4395;48.554;8.820;2022-12-15T10:58:28;-0.40;99.90
8717;DHT22;4395;48.554;8.820;2022-12-15T11:00:33;-0.30;99.90
8717;DHT22;4395;48.554;8.820;2022-12-15T11:02:36;-0.10;99.90
8717;DHT22;4395;48.554;8.820;2022-12-15T11:04:40;-0.20;99.90
8717;DHT22;4395;48.554;8.820;2022-12-15T11:06:43;-0.20;99.90
8717;DHT22;4395;48.554;8.820;2022-12-15T11:08:49;-0.20;99.90
8717;DHT22;4395;48.554;8.820;2022-12-15T11:10:55;0.00;99.90
8717;DHT22;4395;48.554;8.820;2022-12-15T11:13:18;0.10;99.90
8717;DHT22;4395;48.554;8.820;2022-12-15T11:15:44;0.30;99.90
8717;DHT22;4395;48.554;8.820;2022-12-15T11:17:56;0.30;99.90
8717;DHT22;4395;48.554;8.820;2022-12-15T11:20:05;0.30;99.90
8717;DHT22;4395;48.554;8.820;2022-12-15T11:22:17;0.30;99.90
8717;DHT22;4395;48.554;8.820;2022-12-15T11:24:31;0.40;99.90
8717;DHT22;4395;48.554;8.820;2022-12-15T11:26:48;0.50;99.90
8717;DHT22;4395;48.554;8.820;2022-12-15T11:28:57;0.60;99.90
8717;DHT22;4395;48.554;8.820;2022-12-15T11:31:10;0.50;99.90
8717;DHT22;4395;48.554;8.820;2022-12-15T11:33:18;0.60;99.90
8717;DHT22;4395;48.554;8.820;2022-12-15T11:35:26;0.60;99.90
8717;DHT22;4395;48.554;8.820;2022-12-15T11:37:39;0.70;99.90
8717;DHT22;4395;48.554;8.820;2022-12-15T11:39:54;0.80;99.90
8717;DHT22;4395;48.554;8.820;2022-12-15T11:42:07;0.80;99.90
8717;DHT22;4395;48.554;8.820;2022-12-15T11:44:24;0.70;99.90
8717;DHT22;4395;48.554;8.820;2022-12-15T11:46:35;0.40;99.90
8717;DHT22;4395;48.554;8.820;2022-12-15T11:49:00;0.40;99.90
8717;DHT22;4395;48.554;8.820;2022-12-15T11:51:16;0.30;99.90
8717;DHT22;4395;48.554;8.820;2022-12-15T11:53:40;0.40;99.90
8717;DHT22;4395;48.554;8.820;2022-12-15T11:56:02;0.60;99.90
8717;DHT22;4395;48.554;8.820;2022-12-15T11:58:44;0.90;99.90
8717;DHT22;4395;48.554;8.820;2022-12-15T12:01:05;0.90;99.90
8717;DHT22;4395;48.554;8.820;2022-12-15T12:03:24;0.90;99.90
8717;DHT22;4395;48.554;8.820;2022-12-15T12:05:36;1.00;99.90
8717;DHT22;4395;48.554;8.820;2022-12-15T12:08:22;0.70;99.90
8717;DHT22;4395;48.554;8.820;2022-12-15T12:10:37;0.80;99.90
8717;DHT22;4395;48.554;8.820;2022-12-15T12:12:49;1.10;99.90
8717;DHT22;4395;48.554;8.820;2022-12-15T12:15:03;1.20;99.90
8717;DHT22;4395;48.554;8.820;2022-12-15T12:17:28;1.20;99.90
8717;DHT22;4395;48.554;8.820;2022-12-15T12:19:40;1.30;99.90
8717;DHT22;4395;48.554;8.820;2022-12-15T12:21:56;1.30;99.90
8717;DHT22;4395;48.554;8.820;2022-12-15T12:24:03;1.40;99.90
8717;DHT22;4395;48.554;8.820;2022-12-15T12:26:15;1.20;99.90
8717;DHT22;4395;48.554;8.820;2022-12-15T12:28:24;1.20;99.90
8717;DHT22;4395;48.554;8.820;2022-12-15T12:30:37;1.20;99.90
8717;DHT22;4395;48.554;8.820;2022-12-15T12:32:47;1.20;99.90
8717;DHT22;4395;48.554;8.820;2022-12-15T12:35:01;1.30;99.90
8717;DHT22;4395;48.554;8.820;2022-12-15T12:37:32;1.30;99.90
8717;DHT22;4395;48.554;8.820;2022-12-15T12:39:38;1.40;99.90
8717;DHT22;4395;48.554;8.820;2022-12-15T12:41:45;1.40;99.90
8717;DHT22;4395;48.554;8.820;2022-12-15T12:43:52;1.40;99.90
8717;DHT22;4395;48.554;8.820;2022-12-15T12:46:02;1.30;99.90
8717;DHT22;4395;48.554;8.820;2022-12-15T12:48:16;1.30;99.90
8717;DHT22;4395;48.554;8.820;2022-12-15T12:50:26;1.20;99.90
8717;DHT22;4395;48.554;8.820;2022-12-15T12:52:32;1.20;99.90
8717;DHT22;4395;48.554;8.820;2022-12-15T12:54:42;1.30;99.90
8717;DHT22;4395;48.554;8.820;2022-12-15T12:56:51;1.20;99.90
8717;DHT22;4395;48.554;8.820;2022-12-15T12:58:54;1.30;99.90
8717;DHT22;4395;48.554;8.820;2022-12-15T13:01:13;1.30;99.90
8717;DHT22;4395;48.554;8.820;2022-12-15T13:03:20;1.20;99.90
8717;DHT22;4395;48.554;8.820;2022-12-15T13:05:28;1.20;99.90
8717;DHT22;4395;48.554;8.820;2022-12-15T13:07:34;1.20;99.90
8717;DHT22;4395;48.554;8.820;2022-12-15T13:09:40;1.20;99.90
8717;DHT22;4395;48.554;8.820;2022-12-15T13:11:56;1.10;99.90
8717;DHT22;4395;48.554;8.820;2022-12-15T13:14:34;1.10;99.90
8717;DHT22;4395;48.554;8.820;2022-12-15T13:16:44;1.00;99.90
8717;DHT22;4395;48.554;8.820;2022-12-15T13:19:08;1.00;99.90
8717;DHT22;4395;48.554;8.820;2022-12-15T13:21:51;0.90;99.90
8717;DHT22;4395;48.554;8.820;2022-12-15T13:23:57;1.00;99.90
8717;DHT22;4395;48.554;8.820;2022-12-15T13:26:11;0.90;99.90
8717;DHT22;4395;48.554;8.820;2022-12-15T13:28:18;0.90;99.90
8717;DHT22;4395;48.554;8.820;2022-12-15T13:30:27;0.90;99.90
8717;DHT22;4395;48.554;8.820;2022-12-15T13:32:35;0.90;99.90
8717;DHT22;4395;48.554;8.820;2022-12-15T13:34:42;0.90;99.90
8717;DHT22;4395;48.554;8.820;2022-12-15T13:37:18;0.90;99.90
8717;DHT22;4395;48.554;8.820;2022-12-15T13:39:53;0.90;99.90
8717;DHT22;4395;48.554;8.820;2022-12-15T13:42:27;1.00;99.90
8717;DHT22;4395;48.554;8.820;2022-12-15T13:44:44;1.00;99.90
8717;DHT22;4395;48.554;8.820;2022-12-15T13:46:51;1.10;99.90
8717;DHT22;4395;48.554;8.820;2022-12-15T13:49:05;1.10;99.90
8717;DHT22;4395;48.554;8.820;2022-12-15T13:51:30;1.10;99.90
8717;DHT22;4395;48.554;8.820;2022-12-15T13:53:39;1.00;99.90
8717;DHT22;4395;48.554;8.820;2022-12-15T13:55:57;1.10;99.90
8717;DHT22;4395;48.554;8.820;2022-12-15T13:58:12;1.10;99.90
8717;DHT22;4395;48.554;8.820;2022-12-15T14:00:18;0.90;99.90
8717;DHT22;4395;48.554;8.820;2022-12-15T14:02:24;0.80;99.90
8717;DHT22;4395;48.554;8.820;2022-12-15T14:04:28;0.80;99.90
8717;DHT22;4395;48.554;8.820;2022-12-15T14:06:35;0.80;99.90
8717;DHT22;4395;48.554;8.820;2022-12-15T14:08:41;0.80;99.90
8717;DHT22;4395;48.554;8.820;2022-12-15T14:10:47;0.80;99.90
8717;DHT22;4395;48.554;8.820;2022-12-15T14:12:54;0.80;99.90
8717;DHT22;4395;48.554;8.820;2022-12-15T14:15:00;0.90;99.90
8717;DHT22;4395;48.554;8.820;2022-12-15T14:17:07;0.90;99.90
8717;DHT22;4395;48.554;8.820;2022-12-15T14:19:13;0.90;99.90
8717;DHT22;4395;48.554;8.820;2022-12-15T14:21:19;0.80;99.90
8717;DHT22;4395;48.554;8.820;2022-12-15T14:23:26;0.80;99.90